createdAt,value
2022-10-01T00:00:44.154Z,0.00
2022-10-01T00:01:44.155Z,0.00
2022-10-01T00:02:43.247Z,0.00
2022-10-01T00:03:44.646Z,0.00
2022-10-01T00:04:44.004Z,0.00
2022-10-01T00:05:44.163Z,0.00
2022-10-01T00:06:43.203Z,0.00
2022-10-01T00:07:43.164Z,0.00
2022-10-01T00:08:43.186Z,0.00
2022-10-01T00:09:43.175Z,0.00
2022-10-01T00:10:43.134Z,0.00
2022-10-01T00:11:43.136Z,0.00
2022-10-01T00:12:43.095Z,0.00
2022-10-01T00:13:43.129Z,0.00
2022-10-01T00:14:43.035Z,0.00
2022-10-01T00:15:43.073Z,0.00
2022-10-01T00:16:43.118Z,0.00
2022-10-01T00:17:43.026Z,0.00
2022-10-01T00:18:42.998Z,0.00
2022-10-01T00:19:43.018Z,0.00
2022-10-01T00:20:42.967Z,0.00
2022-10-01T00:21:42.979Z,0.00
2022-10-01T00:22:43.839Z,0.00
2022-10-01T00:23:43.720Z,0.00
2022-10-01T00:24:43.656Z,0.00
2022-10-01T00:25:42.957Z,0.00
2022-10-01T00:26:43.688Z,0.00
2022-10-01T00:27:43.886Z,0.00
2022-10-01T00:28:43.758Z,0.00
2022-10-01T00:29:42.860Z,0.00
2022-10-01T00:30:43.818Z,0.00
2022-10-01T00:31:44.390Z,0.00
2022-10-01T00:32:42.824Z,0.00
2022-10-01T00:33:43.784Z,0.00
2022-10-01T00:34:43.680Z,0.00
2022-10-01T00:35:43.596Z,0.00
2022-10-01T00:36:43.491Z,0.00
2022-10-01T00:37:43.660Z,0.00
2022-10-01T00:38:42.716Z,0.00
2022-10-01T00:39:42.751Z,0.00
2022-10-01T00:40:43.622Z,0.00
2022-10-01T00:41:43.142Z,0.00
2022-10-01T00:42:42.710Z,0.00
2022-10-01T00:43:42.662Z,0.00
2022-10-01T00:44:43.491Z,0.00
2022-10-01T00:45:43.421Z,0.00
2022-10-01T00:46:42.672Z,0.00
2022-10-01T00:47:42.603Z,0.00
2022-10-01T00:48:43.377Z,0.00
2022-10-01T00:49:43.529Z,0.00
2022-10-01T00:50:43.431Z,0.00
2022-10-01T00:51:42.574Z,0.00
2022-10-01T00:52:42.543Z,0.00
2022-10-01T00:53:42.556Z,0.00
2022-10-01T00:54:43.308Z,0.00
2022-10-01T00:55:42.493Z,0.00
2022-10-01T00:56:43.366Z,0.00
2022-10-01T00:57:42.584Z,0.00
2022-10-01T00:58:42.462Z,0.00
2022-10-01T00:59:42.503Z,0.00
2022-10-01T01:00:43.238Z,0.00
2022-10-01T01:01:42.524Z,0.00
2022-10-01T01:02:43.397Z,0.00
2022-10-01T01:03:42.429Z,0.00
2022-10-01T01:04:43.119Z,0.00
2022-10-01T01:05:43.266Z,0.00
2022-10-01T01:06:43.215Z,0.00
2022-10-01T01:07:43.119Z,0.00
2022-10-01T01:08:43.767Z,0.00
2022-10-01T01:09:42.298Z,0.00
2022-10-01T01:10:42.619Z,0.00
2022-10-01T01:11:42.314Z,0.00
2022-10-01T01:12:42.311Z,0.00
2022-10-01T01:13:42.266Z,0.00
2022-10-01T01:14:43.238Z,0.00
2022-10-01T01:15:43.162Z,0.00
2022-10-01T01:16:42.978Z,0.00
2022-10-01T01:17:43.146Z,0.00
2022-10-01T01:18:42.209Z,0.00
2022-10-01T01:19:42.950Z,0.00
2022-10-01T01:20:43.110Z,0.00
2022-10-01T01:21:43.016Z,0.00
2022-10-01T01:22:42.919Z,0.00
2022-10-01T01:23:43.079Z,0.00
2022-10-01T01:24:42.449Z,0.00
2022-10-01T01:25:42.053Z,0.00
2022-10-01T01:26:43.053Z,0.00
2022-10-01T01:27:42.997Z,0.00
2022-10-01T01:28:42.060Z,0.00
2022-10-01T01:29:42.090Z,0.00
2022-10-01T01:30:42.001Z,0.00
2022-10-01T01:31:42.821Z,0.00
2022-10-01T01:32:42.721Z,0.00
2022-10-01T01:33:41.939Z,0.00
2022-10-01T01:34:41.943Z,0.00
2022-10-01T01:35:42.008Z,0.00
2022-10-01T01:36:42.041Z,0.00
2022-10-01T01:37:41.941Z,0.00
2022-10-01T01:38:41.896Z,0.00
2022-10-01T01:39:41.894Z,0.00
2022-10-01T01:40:41.865Z,0.00
2022-10-01T01:41:42.632Z,0.00
2022-10-01T01:42:42.790Z,0.00
2022-10-01T01:43:41.852Z,0.00
2022-10-01T01:44:41.812Z,0.00
2022-10-01T01:45:41.917Z,0.00
2022-10-01T01:46:41.823Z,0.00
2022-10-01T01:47:41.773Z,0.00
2022-10-01T01:48:41.824Z,0.00
2022-10-01T01:49:41.754Z,0.00
2022-10-01T01:50:41.815Z,0.00
2022-10-01T01:51:41.796Z,0.00
2022-10-01T01:52:41.675Z,0.00
2022-10-01T01:53:42.502Z,0.00
2022-10-01T01:54:42.004Z,0.00
2022-10-01T01:55:42.565Z,0.00
2022-10-01T01:56:41.644Z,0.00
2022-10-01T01:57:41.642Z,0.00
2022-10-01T01:58:41.598Z,0.00
2022-10-01T01:59:42.047Z,0.00
2022-10-01T02:00:41.579Z,0.00
2022-10-01T02:01:41.858Z,0.00
2022-10-01T02:02:42.444Z,0.00
2022-10-01T02:03:41.798Z,0.00
2022-10-01T02:04:41.763Z,0.00
2022-10-01T02:05:42.376Z,0.00
2022-10-01T02:06:41.987Z,0.00
2022-10-01T02:07:42.928Z,0.00
2022-10-01T02:08:42.338Z,0.00
2022-10-01T02:09:42.247Z,0.00
2022-10-01T02:10:41.431Z,0.00
2022-10-01T02:11:42.327Z,0.00
2022-10-01T02:12:41.407Z,0.00
2022-10-01T02:13:41.368Z,0.00
2022-10-01T02:14:41.430Z,0.00
2022-10-01T02:15:41.431Z,0.00
2022-10-01T02:16:41.476Z,0.00
2022-10-01T02:17:41.458Z,0.00
2022-10-01T02:18:41.412Z,0.00
2022-10-01T02:19:42.126Z,0.00
2022-10-01T02:20:42.221Z,0.00
2022-10-01T02:21:42.123Z,0.00
2022-10-01T02:22:41.283Z,0.00
2022-10-01T02:23:41.289Z,0.00
2022-10-01T02:24:41.225Z,0.00
2022-10-01T02:25:41.221Z,0.00
2022-10-01T02:26:42.150Z,0.00
2022-10-01T02:27:41.164Z,0.00
2022-10-01T02:28:42.613Z,0.00
2022-10-01T02:29:41.172Z,0.00
2022-10-01T02:30:41.179Z,0.00
2022-10-01T02:31:41.986Z,0.00
2022-10-01T02:32:41.121Z,0.00
2022-10-01T02:33:41.992Z,0.00
2022-10-01T02:34:41.919Z,0.00
2022-10-01T02:35:41.090Z,0.00
2022-10-01T02:36:41.963Z,0.00
2022-10-01T02:37:41.064Z,0.00
2022-10-01T02:38:41.082Z,0.00
2022-10-01T02:39:42.485Z,0.00
2022-10-01T02:40:41.832Z,0.00
2022-10-01T02:41:42.021Z,0.00
2022-10-01T02:42:41.174Z,0.00
2022-10-01T02:43:43.048Z,0.00
2022-10-01T02:44:41.235Z,0.00
2022-10-01T02:45:41.897Z,0.00
2022-10-01T02:46:41.766Z,0.00
2022-10-01T02:47:41.691Z,0.00
2022-10-01T02:48:40.866Z,0.00
2022-10-01T02:49:41.760Z,0.00
2022-10-01T02:50:41.649Z,0.00
2022-10-01T02:51:41.810Z,0.00
2022-10-01T02:52:40.950Z,0.00
2022-10-01T02:53:41.613Z,0.00
2022-10-01T02:54:41.766Z,0.00
2022-10-01T02:55:40.824Z,0.00
2022-10-01T02:56:48.420Z,0.00
2022-10-01T02:57:41.770Z,0.00
2022-10-01T02:58:41.640Z,0.00
2022-10-01T02:59:41.545Z,0.00
2022-10-01T03:00:41.445Z,0.00
2022-10-01T03:01:41.644Z,0.00
2022-10-01T03:02:41.681Z,0.00
2022-10-01T03:03:41.423Z,0.00
2022-10-01T03:04:41.568Z,0.00
2022-10-01T03:05:40.681Z,0.00
2022-10-01T03:06:40.625Z,0.00
2022-10-01T03:07:41.542Z,0.00
2022-10-01T03:08:41.458Z,0.00
2022-10-01T03:09:40.589Z,0.00
2022-10-01T03:10:43.494Z,0.00
2022-10-01T03:11:41.844Z,0.00
2022-10-01T03:12:41.319Z,0.00
2022-10-01T03:13:41.251Z,0.00
2022-10-01T03:14:40.604Z,0.00
2022-10-01T03:15:40.529Z,0.00
2022-10-01T03:16:40.481Z,0.00
2022-10-01T03:17:41.232Z,0.00
2022-10-01T03:18:40.421Z,0.00
2022-10-01T03:19:41.432Z,0.00
2022-10-01T03:20:40.457Z,0.00
2022-10-01T03:21:41.222Z,0.00
2022-10-01T03:22:40.382Z,0.00
2022-10-01T03:23:40.371Z,0.00
2022-10-01T03:24:40.345Z,0.00
2022-10-01T03:25:41.096Z,0.00
2022-10-01T03:26:40.362Z,0.00
2022-10-01T03:27:40.702Z,0.00
2022-10-01T03:28:40.774Z,0.00
2022-10-01T03:29:40.256Z,0.00
2022-10-01T03:30:40.275Z,0.00
2022-10-01T03:31:41.053Z,0.00
2022-10-01T03:32:41.195Z,0.00
2022-10-01T03:33:41.804Z,0.00
2022-10-01T03:34:40.994Z,0.00
2022-10-01T03:35:41.163Z,0.00
2022-10-01T03:36:41.072Z,0.00
2022-10-01T03:37:40.964Z,0.00
2022-10-01T03:38:41.143Z,0.00
2022-10-01T03:39:41.037Z,0.00
2022-10-01T03:40:40.139Z,0.00
2022-10-01T03:41:41.098Z,0.00
2022-10-01T03:42:40.995Z,0.00
2022-10-01T03:43:40.902Z,0.00
2022-10-01T03:44:41.505Z,0.00
2022-10-01T03:45:40.119Z,0.00
2022-10-01T03:46:40.056Z,0.00
2022-10-01T03:47:40.774Z,0.00
2022-10-01T03:48:40.939Z,0.00
2022-10-01T03:49:40.841Z,0.00
2022-10-01T03:50:40.998Z,0.00
2022-10-01T03:51:39.999Z,0.00
2022-10-01T03:52:39.968Z,0.00
2022-10-01T03:53:40.707Z,0.00
2022-10-01T03:54:40.870Z,0.00
2022-10-01T03:55:40.777Z,0.00
2022-10-01T03:56:39.983Z,0.00
2022-10-01T03:57:39.868Z,0.00
2022-10-01T03:58:40.739Z,0.00
2022-10-01T03:59:40.643Z,0.00
2022-10-01T04:00:39.873Z,0.00
2022-10-01T04:01:40.023Z,0.00
2022-10-01T04:02:40.705Z,0.00
2022-10-01T04:03:39.792Z,0.00
2022-10-01T04:04:40.680Z,0.00
2022-10-01T04:05:40.584Z,0.00
2022-10-01T04:06:39.760Z,0.00
2022-10-01T04:07:39.721Z,0.00
2022-10-01T04:08:40.551Z,0.00
2022-10-01T04:09:40.712Z,0.00
2022-10-01T04:10:40.616Z,0.00
2022-10-01T04:11:40.521Z,0.00
2022-10-01T04:12:40.425Z,0.00
2022-10-01T04:13:40.593Z,0.00
2022-10-01T04:14:40.482Z,0.00
2022-10-01T04:15:40.393Z,0.00
2022-10-01T04:16:41.176Z,0.00
2022-10-01T04:17:43.887Z,0.00
2022-10-01T04:18:41.383Z,0.00
2022-10-01T04:19:39.563Z,0.00
2022-10-01T04:20:39.631Z,0.00
2022-10-01T04:21:41.123Z,0.00
2022-10-01T04:22:39.574Z,0.00
2022-10-01T04:23:40.408Z,0.00
2022-10-01T04:24:40.294Z,0.00
2022-10-01T04:25:40.475Z,0.00
2022-10-01T04:26:40.359Z,0.00
2022-10-01T04:27:40.262Z,0.00
2022-10-01T04:28:40.422Z,0.00
2022-10-01T04:29:40.320Z,0.00
2022-10-01T04:30:40.277Z,0.00
2022-10-01T04:31:40.453Z,0.00
2022-10-01T04:32:40.294Z,0.00
2022-10-01T04:33:39.506Z,0.00
2022-10-01T04:34:40.356Z,0.00
2022-10-01T04:35:39.349Z,0.00
2022-10-01T04:36:39.526Z,0.00
2022-10-01T04:37:39.336Z,0.00
2022-10-01T04:38:39.308Z,0.00
2022-10-01T04:39:40.161Z,0.00
2022-10-01T04:40:40.062Z,0.00
2022-10-01T04:41:39.476Z,0.00
2022-10-01T04:42:40.710Z,0.00
2022-10-01T04:43:40.017Z,0.00
2022-10-01T04:44:40.170Z,0.00
2022-10-01T04:45:40.073Z,0.00
2022-10-01T04:46:39.311Z,0.00
2022-10-01T04:47:40.138Z,0.00
2022-10-01T04:48:40.039Z,0.00
2022-10-01T04:49:39.953Z,0.00
2022-10-01T04:50:39.120Z,0.00
2022-10-01T04:51:39.127Z,0.00
2022-10-01T04:52:39.113Z,0.00
2022-10-01T04:53:39.123Z,0.00
2022-10-01T04:54:39.971Z,0.00
2022-10-01T04:55:39.266Z,0.00
2022-10-01T04:56:40.129Z,0.00
2022-10-01T04:57:39.943Z,0.00
2022-10-01T04:58:39.956Z,0.00
2022-10-01T04:59:39.751Z,0.00
2022-10-01T05:00:39.044Z,0.00
2022-10-01T05:01:39.295Z,0.00
2022-10-01T05:02:39.726Z,0.00
2022-10-01T05:03:39.890Z,0.00
2022-10-01T05:04:38.958Z,0.00
2022-10-01T05:05:38.945Z,0.00
2022-10-01T05:06:38.943Z,0.00
2022-10-01T05:07:39.751Z,0.00
2022-10-01T05:08:39.654Z,0.00
2022-10-01T05:09:38.948Z,0.00
2022-10-01T05:10:39.716Z,0.00
2022-10-01T05:11:39.691Z,0.00
2022-10-01T05:12:39.857Z,0.00
2022-10-01T05:13:38.813Z,0.00
2022-10-01T05:14:39.638Z,0.00
2022-10-01T05:15:39.755Z,0.00
2022-10-01T05:16:38.872Z,0.00
2022-10-01T05:17:39.568Z,0.00
2022-10-01T05:18:39.777Z,0.00
2022-10-01T05:19:39.627Z,0.00
2022-10-01T05:20:38.847Z,0.00
2022-10-01T05:21:38.716Z,0.00
2022-10-01T05:22:38.797Z,0.00
2022-10-01T05:23:39.521Z,5.62
2022-10-01T05:24:39.396Z,5.62
2022-10-01T05:25:39.557Z,5.62
2022-10-01T05:26:39.494Z,5.62
2022-10-01T05:27:39.384Z,5.62
2022-10-01T05:28:39.646Z,5.62
2022-10-01T05:29:38.581Z,5.62
2022-10-01T05:30:38.601Z,5.62
2022-10-01T05:31:39.083Z,5.62
2022-10-01T05:32:38.514Z,5.62
2022-10-01T05:33:39.303Z,11.25
2022-10-01T05:34:38.516Z,11.25
2022-10-01T05:35:38.718Z,11.25
2022-10-01T05:36:38.494Z,11.25
2022-10-01T05:37:39.433Z,11.25
2022-10-01T05:38:39.343Z,16.88
2022-10-01T05:39:38.480Z,16.88
2022-10-01T05:40:39.392Z,22.50
2022-10-01T05:41:39.155Z,22.50
2022-10-01T05:42:38.484Z,22.50
2022-10-01T05:43:38.443Z,22.50
2022-10-01T05:44:38.606Z,22.50
2022-10-01T05:45:39.256Z,22.50
2022-10-01T05:46:39.184Z,22.50
2022-10-01T05:47:38.352Z,22.50
2022-10-01T05:48:38.460Z,16.88
2022-10-01T05:49:39.048Z,16.88
2022-10-01T05:50:38.299Z,16.88
2022-10-01T05:51:39.148Z,16.88
2022-10-01T05:52:38.267Z,16.88
2022-10-01T05:53:38.285Z,22.50
2022-10-01T05:54:39.114Z,28.12
2022-10-01T05:55:38.996Z,28.12
2022-10-01T05:56:38.255Z,28.12
2022-10-01T05:57:39.064Z,28.12
2022-10-01T05:58:38.960Z,33.75
2022-10-01T05:59:38.191Z,33.75
2022-10-01T06:00:39.022Z,28.12
2022-10-01T06:01:38.955Z,33.75
2022-10-01T06:02:39.159Z,28.12
2022-10-01T06:03:38.201Z,28.12
2022-10-01T06:04:41.212Z,22.50
2022-10-01T06:05:38.201Z,22.50
2022-10-01T06:06:38.950Z,22.50
2022-10-01T06:07:38.857Z,22.50
2022-10-01T06:08:38.984Z,16.88
2022-10-01T06:09:38.103Z,22.50
2022-10-01T06:10:38.033Z,22.50
2022-10-01T06:11:38.741Z,22.50
2022-10-01T06:12:38.884Z,28.12
2022-10-01T06:13:38.804Z,33.75
2022-10-01T06:14:37.943Z,33.75
2022-10-01T06:15:38.101Z,39.38
2022-10-01T06:16:37.984Z,45.00
2022-10-01T06:17:37.886Z,50.62
2022-10-01T06:18:38.824Z,45.00
2022-10-01T06:19:37.859Z,45.00
2022-10-01T06:20:38.640Z,33.75
2022-10-01T06:21:38.786Z,28.12
2022-10-01T06:22:38.147Z,45.00
2022-10-01T06:23:37.827Z,39.38
2022-10-01T06:24:38.207Z,45.00
2022-10-01T06:25:39.232Z,39.38
2022-10-01T06:26:38.568Z,33.75
2022-10-01T06:27:37.788Z,45.00
2022-10-01T06:28:37.742Z,50.62
2022-10-01T06:29:38.528Z,45.00
2022-10-01T06:30:37.716Z,45.00
2022-10-01T06:31:38.202Z,45.00
2022-10-01T06:32:37.659Z,50.62
2022-10-01T06:33:38.405Z,56.25
2022-10-01T06:34:38.565Z,56.25
2022-10-01T06:35:37.611Z,50.62
2022-10-01T06:36:38.371Z,45.00
2022-10-01T06:37:38.530Z,45.00
2022-10-01T06:38:38.437Z,56.25
2022-10-01T06:39:38.339Z,56.25
2022-10-01T06:40:37.549Z,61.88
2022-10-01T06:41:38.404Z,61.88
2022-10-01T06:42:38.324Z,67.50
2022-10-01T06:43:38.471Z,50.62
2022-10-01T06:44:38.376Z,39.38
2022-10-01T06:45:38.372Z,39.38
2022-10-01T06:46:38.486Z,39.38
2022-10-01T06:47:38.271Z,33.75
2022-10-01T06:48:38.229Z,33.75
2022-10-01T06:49:37.441Z,39.38
2022-10-01T06:50:38.364Z,56.25
2022-10-01T06:51:37.462Z,56.25
2022-10-01T06:52:38.375Z,84.38
2022-10-01T06:53:38.873Z,78.75
2022-10-01T06:54:37.355Z,78.75
2022-10-01T06:55:38.126Z,67.50
2022-10-01T06:56:37.344Z,56.25
2022-10-01T06:57:37.354Z,50.62
2022-10-01T06:58:38.052Z,45.00
2022-10-01T06:59:37.321Z,50.62
2022-10-01T07:00:37.353Z,61.88
2022-10-01T07:01:37.917Z,61.88
2022-10-01T07:02:38.460Z,61.88
2022-10-01T07:03:38.085Z,73.12
2022-10-01T07:04:37.985Z,73.12
2022-10-01T07:05:38.165Z,73.12
2022-10-01T07:06:37.214Z,78.75
2022-10-01T07:07:37.955Z,78.75
2022-10-01T07:08:38.122Z,73.12
2022-10-01T07:09:38.017Z,78.75
2022-10-01T07:10:38.565Z,78.75
2022-10-01T07:11:38.107Z,90.00
2022-10-01T07:12:37.985Z,84.38
2022-10-01T07:13:37.908Z,95.62
2022-10-01T07:14:38.056Z,84.38
2022-10-01T07:15:37.964Z,90.00
2022-10-01T07:16:38.514Z,78.75
2022-10-01T07:17:37.009Z,95.62
2022-10-01T07:18:37.968Z,84.38
2022-10-01T07:19:37.837Z,78.75
2022-10-01T07:20:37.735Z,78.75
2022-10-01T07:21:37.921Z,73.12
2022-10-01T07:22:37.800Z,67.50
2022-10-01T07:23:36.968Z,78.75
2022-10-01T07:24:37.858Z,78.75
2022-10-01T07:25:37.769Z,73.12
2022-10-01T07:26:37.667Z,73.12
2022-10-01T07:27:37.827Z,84.38
2022-10-01T07:28:37.737Z,84.38
2022-10-01T07:29:37.642Z,95.62
2022-10-01T07:30:36.830Z,84.38
2022-10-01T07:31:37.295Z,84.38
2022-10-01T07:32:37.613Z,73.12
2022-10-01T07:33:36.809Z,67.50
2022-10-01T07:34:36.813Z,67.50
2022-10-01T07:35:36.771Z,78.75
2022-10-01T07:36:36.793Z,78.75
2022-10-01T07:37:36.754Z,73.12
2022-10-01T07:38:37.572Z,84.38
2022-10-01T07:39:36.731Z,84.38
2022-10-01T07:40:36.868Z,78.75
2022-10-01T07:41:37.511Z,78.75
2022-10-01T07:42:38.184Z,61.88
2022-10-01T07:43:36.677Z,61.88
2022-10-01T07:44:37.492Z,67.50
2022-10-01T07:45:37.603Z,78.75
2022-10-01T07:46:36.592Z,90.00
2022-10-01T07:47:36.609Z,95.62
2022-10-01T07:48:36.594Z,101.25
2022-10-01T07:49:36.573Z,112.50
2022-10-01T07:50:36.533Z,101.25
2022-10-01T07:51:37.317Z,95.62
2022-10-01T07:52:37.474Z,95.62
2022-10-01T07:53:37.381Z,112.50
2022-10-01T07:54:37.962Z,118.12
2022-10-01T07:55:37.445Z,123.75
2022-10-01T07:56:37.361Z,118.12
2022-10-01T07:57:37.255Z,118.12
2022-10-01T07:58:37.415Z,112.50
2022-10-01T07:59:37.316Z,112.50
2022-10-01T08:00:37.224Z,106.88
2022-10-01T08:01:36.854Z,90.00
2022-10-01T08:02:36.405Z,123.75
2022-10-01T08:03:37.186Z,101.25
2022-10-01T08:04:36.335Z,112.50
2022-10-01T08:05:36.365Z,112.50
2022-10-01T08:06:36.326Z,106.88
2022-10-01T08:07:36.308Z,106.88
2022-10-01T08:08:37.227Z,101.25
2022-10-01T08:09:36.276Z,101.25
2022-10-01T08:10:36.248Z,112.50
2022-10-01T08:11:36.597Z,95.62
2022-10-01T08:12:37.087Z,106.88
2022-10-01T08:13:37.000Z,106.88
2022-10-01T08:14:36.288Z,106.88
2022-10-01T08:15:36.176Z,95.62
2022-10-01T08:16:37.026Z,112.50
2022-10-01T08:17:36.168Z,146.25
2022-10-01T08:18:36.128Z,135.00
2022-10-01T08:19:36.124Z,101.25
2022-10-01T08:20:37.107Z,78.75
2022-10-01T08:21:37.216Z,101.25
2022-10-01T08:22:41.695Z,118.12
2022-10-01T08:23:37.831Z,123.75
2022-10-01T08:24:36.030Z,123.75
2022-10-01T08:25:36.061Z,196.88
2022-10-01T08:26:36.771Z,202.50
2022-10-01T08:27:36.931Z,191.25
2022-10-01T08:28:36.012Z,174.38
2022-10-01T08:29:36.749Z,146.25
2022-10-01T08:30:36.903Z,129.38
2022-10-01T08:31:37.230Z,101.25
2022-10-01T08:32:35.934Z,84.38
2022-10-01T08:33:36.872Z,84.38
2022-10-01T08:34:35.923Z,78.75
2022-10-01T08:35:35.896Z,95.62
2022-10-01T08:36:36.833Z,146.25
2022-10-01T08:37:36.758Z,151.88
2022-10-01T08:38:35.883Z,180.00
2022-10-01T08:39:35.842Z,157.50
2022-10-01T08:40:36.741Z,140.62
2022-10-01T08:41:36.147Z,129.38
2022-10-01T08:42:36.774Z,95.62
2022-10-01T08:43:36.684Z,90.00
2022-10-01T08:44:36.619Z,95.62
2022-10-01T08:45:35.786Z,90.00
2022-10-01T08:46:37.177Z,90.00
2022-10-01T08:47:36.552Z,90.00
2022-10-01T08:48:35.707Z,95.62
2022-10-01T08:49:36.615Z,95.62
2022-10-01T08:50:36.518Z,106.88
2022-10-01T08:51:36.666Z,90.00
2022-10-01T08:52:35.711Z,112.50
2022-10-01T08:53:36.485Z,106.88
2022-10-01T08:54:36.395Z,106.88
2022-10-01T08:55:35.678Z,118.12
2022-10-01T08:56:36.456Z,112.50
2022-10-01T08:57:36.357Z,106.88
2022-10-01T08:58:35.828Z,101.25
2022-10-01T08:59:36.418Z,118.12
2022-10-01T09:00:35.586Z,123.75
2022-10-01T09:01:35.846Z,123.75
2022-10-01T09:02:35.518Z,146.25
2022-10-01T09:03:35.479Z,129.38
2022-10-01T09:04:35.890Z,146.25
2022-10-01T09:05:36.360Z,151.88
2022-10-01T09:06:35.518Z,151.88
2022-10-01T09:07:36.899Z,168.75
2022-10-01T09:08:36.321Z,174.38
2022-10-01T09:09:36.230Z,180.00
2022-10-01T09:10:36.389Z,180.00
2022-10-01T09:11:36.650Z,174.38
2022-10-01T09:12:36.879Z,163.12
2022-10-01T09:13:36.361Z,174.38
2022-10-01T09:14:35.323Z,163.12
2022-10-01T09:15:36.165Z,151.88
2022-10-01T09:16:36.102Z,163.12
2022-10-01T09:17:36.233Z,157.50
2022-10-01T09:18:36.144Z,151.88
2022-10-01T09:19:36.032Z,151.88
2022-10-01T09:20:36.193Z,135.00
2022-10-01T09:21:36.422Z,135.00
2022-10-01T09:22:36.003Z,129.38
2022-10-01T09:23:35.262Z,135.00
2022-10-01T09:24:35.374Z,135.00
2022-10-01T09:25:35.194Z,135.00
2022-10-01T09:26:36.162Z,151.88
2022-10-01T09:27:35.185Z,185.62
2022-10-01T09:28:35.174Z,191.25
2022-10-01T09:29:35.119Z,168.75
2022-10-01T09:30:35.095Z,168.75
2022-10-01T09:31:35.417Z,151.88
2022-10-01T09:32:36.065Z,163.12
2022-10-01T09:33:35.087Z,157.50
2022-10-01T09:34:35.092Z,140.62
2022-10-01T09:35:35.235Z,123.75
2022-10-01T09:36:35.241Z,140.62
2022-10-01T09:37:35.852Z,106.88
2022-10-01T09:38:35.748Z,112.50
2022-10-01T09:39:35.908Z,106.88
2022-10-01T09:40:34.996Z,106.88
2022-10-01T09:41:36.309Z,106.88
2022-10-01T09:42:35.878Z,101.25
2022-10-01T09:43:34.939Z,112.50
2022-10-01T09:44:34.983Z,123.75
2022-10-01T09:45:36.034Z,129.38
2022-10-01T09:46:34.897Z,135.00
2022-10-01T09:47:35.648Z,157.50
2022-10-01T09:48:34.886Z,208.12
2022-10-01T09:49:35.726Z,236.25
2022-10-01T09:50:35.618Z,230.62
2022-10-01T09:51:38.233Z,230.62
2022-10-01T09:52:36.710Z,236.25
2022-10-01T09:53:35.592Z,253.12
2022-10-01T09:54:36.275Z,264.38
2022-10-01T09:55:34.759Z,286.88
2022-10-01T09:56:35.591Z,303.75
2022-10-01T09:57:34.750Z,315.00
2022-10-01T09:58:35.620Z,292.50
2022-10-01T09:59:34.704Z,236.25
2022-10-01T10:00:34.690Z,230.62
2022-10-01T10:01:35.612Z,303.75
2022-10-01T10:02:35.268Z,315.00
2022-10-01T10:03:35.735Z,416.25
2022-10-01T10:04:35.004Z,433.12
2022-10-01T10:05:35.183Z,528.75
2022-10-01T10:06:35.514Z,455.62
2022-10-01T10:07:35.271Z,421.88
2022-10-01T10:08:34.593Z,528.75
2022-10-01T10:09:34.624Z,596.25
2022-10-01T10:10:35.593Z,652.50
2022-10-01T10:11:35.914Z,573.75
2022-10-01T10:12:35.571Z,495.00
2022-10-01T10:13:34.514Z,376.88
2022-10-01T10:14:34.544Z,320.62
2022-10-01T10:15:35.332Z,455.62
2022-10-01T10:16:35.845Z,753.75
2022-10-01T10:17:35.334Z,759.38
2022-10-01T10:18:34.455Z,843.75
2022-10-01T10:19:34.457Z,725.62
2022-10-01T10:20:34.416Z,748.12
2022-10-01T10:21:35.208Z,691.88
2022-10-01T10:22:35.367Z,646.88
2022-10-01T10:23:35.361Z,646.88
2022-10-01T10:24:35.178Z,669.38
2022-10-01T10:25:35.338Z,753.75
2022-10-01T10:26:34.725Z,871.88
2022-10-01T10:27:35.143Z,905.62
2022-10-01T10:28:37.665Z,1023.75
2022-10-01T10:29:34.300Z,855.00
2022-10-01T10:30:35.150Z,928.12
2022-10-01T10:31:35.065Z,770.62
2022-10-01T10:32:35.199Z,624.38
2022-10-01T10:33:34.240Z,601.88
2022-10-01T10:34:34.993Z,652.50
2022-10-01T10:35:35.140Z,804.38
2022-10-01T10:36:35.280Z,770.62
2022-10-01T10:37:34.950Z,826.88
2022-10-01T10:38:34.162Z,888.75
2022-10-01T10:39:34.171Z,950.62
2022-10-01T10:40:34.162Z,911.25
2022-10-01T10:41:34.393Z,832.50
2022-10-01T10:42:35.571Z,731.25
2022-10-01T10:43:34.114Z,708.75
2022-10-01T10:44:35.173Z,472.50
2022-10-01T10:45:34.963Z,388.12
2022-10-01T10:46:34.960Z,354.38
2022-10-01T10:47:34.083Z,343.12
2022-10-01T10:48:34.920Z,331.88
2022-10-01T10:49:34.054Z,286.88
2022-10-01T10:50:34.984Z,343.12
2022-10-01T10:51:34.246Z,320.62
2022-10-01T10:52:34.333Z,348.75
2022-10-01T10:53:33.966Z,320.62
2022-10-01T10:54:34.869Z,348.75
2022-10-01T10:55:33.949Z,365.62
2022-10-01T10:56:34.134Z,506.25
2022-10-01T10:57:33.927Z,495.00
2022-10-01T10:58:34.269Z,433.12
2022-10-01T10:59:34.628Z,376.88
2022-10-01T11:00:34.787Z,466.88
2022-10-01T11:01:34.013Z,444.38
2022-10-01T11:02:33.911Z,691.88
2022-10-01T11:03:33.817Z,888.75
2022-10-01T11:04:34.278Z,1186.88
2022-10-01T11:05:34.569Z,1496.25
2022-10-01T11:06:34.532Z,1569.38
2022-10-01T11:07:34.292Z,1198.12
2022-10-01T11:08:34.458Z,1096.88
2022-10-01T11:09:33.760Z,1006.88
2022-10-01T11:10:34.600Z,1023.75
2022-10-01T11:11:33.785Z,1029.38
2022-10-01T11:12:33.693Z,1153.12
2022-10-01T11:13:34.665Z,1198.12
2022-10-01T11:14:33.671Z,1085.62
2022-10-01T11:15:34.730Z,1220.62
2022-10-01T11:16:34.769Z,1074.38
2022-10-01T11:17:33.962Z,1074.38
2022-10-01T11:18:33.987Z,1164.38
2022-10-01T11:19:33.603Z,1490.62
2022-10-01T11:20:34.412Z,1665.00
2022-10-01T11:21:33.591Z,1524.38
2022-10-01T11:22:34.472Z,2896.88
2022-10-01T11:23:34.375Z,2728.12
2022-10-01T11:24:34.974Z,2615.62
2022-10-01T11:25:33.526Z,2683.12
2022-10-01T11:26:33.664Z,2638.12
2022-10-01T11:27:33.467Z,2666.25
2022-10-01T11:28:34.408Z,2761.88
2022-10-01T11:29:34.307Z,2683.12
2022-10-01T11:30:34.214Z,2610.00
2022-10-01T11:31:34.402Z,2610.00
2022-10-01T11:32:33.438Z,2604.38
2022-10-01T11:33:33.420Z,2649.38
2022-10-01T11:34:34.809Z,2683.12
2022-10-01T11:35:33.349Z,2463.75
2022-10-01T11:36:34.357Z,1738.12
2022-10-01T11:37:34.306Z,2621.25
2022-10-01T11:38:34.210Z,1203.75
2022-10-01T11:39:34.118Z,1006.88
2022-10-01T11:40:34.283Z,1023.75
2022-10-01T11:41:33.312Z,956.25
2022-10-01T11:42:33.299Z,1411.88
2022-10-01T11:43:33.285Z,2694.38
2022-10-01T11:44:33.254Z,2503.12
2022-10-01T11:45:34.052Z,2671.88
2022-10-01T11:46:33.616Z,2756.25
2022-10-01T11:47:34.124Z,1923.75
2022-10-01T11:48:34.022Z,2401.88
2022-10-01T11:49:33.924Z,1091.25
2022-10-01T11:50:39.075Z,1198.12
2022-10-01T11:51:33.990Z,3268.12
2022-10-01T11:52:33.920Z,1440.00
2022-10-01T11:53:34.066Z,2913.75
2022-10-01T11:54:33.965Z,1895.62
2022-10-01T11:55:33.866Z,2390.62
2022-10-01T11:56:33.421Z,3144.38
2022-10-01T11:57:33.964Z,2986.88
2022-10-01T11:58:33.838Z,3082.50
2022-10-01T11:59:34.012Z,3183.75
2022-10-01T12:00:33.905Z,2013.75
2022-10-01T12:01:33.071Z,1980.00
2022-10-01T12:02:33.023Z,1805.62
2022-10-01T12:03:33.345Z,1080.00
2022-10-01T12:04:33.777Z,1113.75
2022-10-01T12:05:33.557Z,1125.00
2022-10-01T12:06:34.536Z,1012.50
2022-10-01T12:07:33.750Z,1535.62
2022-10-01T12:08:33.946Z,888.75
2022-10-01T12:09:32.920Z,860.62
2022-10-01T12:10:33.709Z,2711.25
2022-10-01T12:11:32.946Z,2671.88
2022-10-01T12:12:33.777Z,2362.50
2022-10-01T12:13:32.894Z,2593.12
2022-10-01T12:14:33.229Z,2587.50
2022-10-01T12:15:32.840Z,2514.38
2022-10-01T12:16:33.848Z,2621.25
2022-10-01T12:17:33.553Z,2576.25
2022-10-01T12:18:33.748Z,2626.88
2022-10-01T12:19:33.620Z,2643.75
2022-10-01T12:20:33.559Z,2683.12
2022-10-01T12:21:32.895Z,2565.00
2022-10-01T12:22:34.256Z,2491.88
2022-10-01T12:23:33.486Z,2559.38
2022-10-01T12:24:33.673Z,2553.75
2022-10-01T12:25:32.754Z,2548.12
2022-10-01T12:26:33.125Z,2553.75
2022-10-01T12:27:32.656Z,2655.00
2022-10-01T12:28:33.642Z,2700.00
2022-10-01T12:29:32.681Z,2604.38
2022-10-01T12:30:33.600Z,2570.62
2022-10-01T12:31:33.552Z,2581.88
2022-10-01T12:32:32.595Z,2621.25
2022-10-01T12:33:33.628Z,2733.75
2022-10-01T12:34:33.481Z,990.00
2022-10-01T12:35:32.537Z,2576.25
2022-10-01T12:36:33.109Z,2649.38
2022-10-01T12:37:33.423Z,2711.25
2022-10-01T12:38:32.553Z,781.88
2022-10-01T12:39:33.229Z,1012.50
2022-10-01T12:40:33.401Z,2036.25
2022-10-01T12:41:32.569Z,2446.88
2022-10-01T12:42:33.199Z,2750.62
2022-10-01T12:43:32.447Z,1355.62
2022-10-01T12:44:33.336Z,2655.00
2022-10-01T12:45:33.194Z,2514.38
2022-10-01T12:46:32.677Z,2407.50
2022-10-01T12:47:32.416Z,2053.12
2022-10-01T12:48:33.133Z,950.62
2022-10-01T12:49:32.390Z,1186.88
2022-10-01T12:50:33.204Z,849.38